パリ/シャルル・ド・ゴール の空港の天気 - METARとTAF

シャルル・ド・ゴール国際空港(パリ) ( LFPG / CDG ) - フランス Paris
飛行場実況気象(Metar)
観測時間09/28 01:30 CEST (09/27 23:30 UTC)
風向・風速西 3m/s
視程10km以上
天気現象弱い雨
全天の4割程度の雲 雲底高度 240m
全天の8割程度の雲 雲底高度 850m
気温12℃
湿度94%
気圧1000hPa
METARLFPG 272330Z 27005KT 9999 -RA SCT008 BKN028 12/11 Q1000 NOSIG
過去の天気等 Google飛行場航空写真 Wunderground天気予報

過去48時間のMETAR

飛行場予報(TAF)
発表時間: 9/28 01:00 CEST (9/27 23:00 UTC)
予報対象時間: 28日2時 CEST ~ 29日8時 CEST
風向・風速西 5m/s
視程10km以上
少しの雲 雲底高度 270m
全天の4割程度の雲 雲底高度 370m
全天の8割程度の雲 雲底高度 1220m
28日2時 CEST ~ 28日5時 CEST に 確率 30% で一時的に
全天の8割程度の雲 雲底高度 240m
全天の8割程度の雲 雲底高度 370m
28日6時 CEST ~ 28日10時 CEST に 確率 30% で一時的に
視程4000m
天気現象もや
28日13時 CEST ~ 28日20時 CEST に 確率 40% で一時的に
風向・風速西北西 6m/s
視程4000m
天気現象しゅう雨
全天の8割程度の塔状積雲 雲底高度 1070m
29日4時 CEST ~ 29日8時 CEST に一時的に
視程4000m
天気現象もや
全天の8割程度の雲 雲底高度 210m
29日6時 CEST ~ 29日8時 CEST に 確率 40% で一時的に
視程800m
天気現象
全天の8割程度の雲 雲底高度 120m
TAF LFPG 272300Z 2800/2906 28010KT 9999 FEW009 SCT012 BKN040 TX15/2812Z TN07/2906Z
PROB30 TEMPO 2800/2803 BKN008 BKN012
PROB30 TEMPO 2804/2808 4000 BR
PROB40 TEMPO 2811/2818 29012KT 4000 SHRA BKN035TCU
TEMPO 2902/2906 4000 BR BKN007
PROB40 TEMPO 2904/2906 0800 FG BKN004